createdAt,value
2022-08-28T00:02:01.616Z,18.9
2022-08-28T00:07:01.636Z,20.7
2022-08-28T00:12:01.618Z,22.7
2022-08-28T00:17:01.614Z,24.5
2022-08-28T00:22:01.635Z,26.0
2022-08-28T00:27:01.617Z,26.9
2022-08-28T00:32:01.620Z,28.4
2022-08-28T00:37:01.629Z,28.9
2022-08-28T00:42:01.663Z,29.1
2022-08-28T00:47:01.620Z,29.0
2022-08-28T00:52:01.640Z,29.4
2022-08-28T00:57:01.621Z,29.8
2022-08-28T01:02:02.039Z,29.3
2022-08-28T01:07:04.047Z,29.5
2022-08-28T01:12:01.655Z,29.5
2022-08-28T01:18:08.544Z,29.2
2022-08-28T01:23:01.923Z,29.0
2022-08-28T01:28:01.596Z,29.8
2022-08-28T01:33:03.084Z,30.1
2022-08-28T01:38:01.635Z,31.1
2022-08-28T01:43:01.634Z,31.2
2022-08-28T01:48:01.624Z,30.7
2022-08-28T01:53:01.649Z,30.2
2022-08-28T01:58:01.625Z,29.6
2022-08-28T02:03:01.631Z,29.0
2022-08-28T02:08:01.626Z,29.1
2022-08-28T02:13:01.615Z,29.8
2022-08-28T02:18:01.651Z,30.5
2022-08-28T02:23:01.767Z,30.8
2022-08-28T02:28:01.617Z,30.9
2022-08-28T02:33:01.619Z,31.4
2022-08-28T02:38:02.045Z,31.6
2022-08-28T02:43:01.622Z,31.4
2022-08-28T02:48:01.688Z,31.3
2022-08-28T02:53:01.736Z,31.7
2022-08-28T02:58:01.612Z,30.8
2022-08-28T03:03:02.511Z,30.4
2022-08-28T03:08:01.544Z,30.7
2022-08-28T03:13:01.576Z,30.6
2022-08-28T03:18:11.267Z,27.9
2022-08-28T03:23:01.628Z,29.1
2022-08-28T03:28:02.486Z,29.3
2022-08-28T03:33:01.538Z,29.2
2022-08-28T03:38:02.677Z,29.0
2022-08-28T03:43:01.550Z,30.5
2022-08-28T03:48:01.590Z,29.1
2022-08-28T03:53:01.619Z,28.3
2022-08-28T03:58:01.614Z,27.6
2022-08-28T04:03:01.745Z,27.2
2022-08-28T04:08:01.625Z,26.9
2022-08-28T04:13:01.618Z,26.0
2022-08-28T04:18:01.616Z,24.5
2022-08-28T04:23:01.627Z,24.3
2022-08-28T04:28:01.624Z,23.4
2022-08-28T04:33:01.617Z,23.0
2022-08-28T04:38:05.709Z,22.9
2022-08-28T04:43:01.629Z,23.2
2022-08-28T04:48:05.686Z,21.6
2022-08-28T04:53:01.641Z,19.8
2022-08-28T04:58:01.656Z,18.0
2022-08-28T05:03:01.736Z,16.2
2022-08-28T05:08:01.764Z,15.1
2022-08-28T05:13:01.627Z,13.6
2022-08-28T05:18:01.611Z,13.5
2022-08-28T05:23:02.287Z,13.0
2022-08-28T05:28:01.613Z,11.8
2022-08-28T05:33:01.610Z,11.4
2022-08-28T05:38:01.888Z,11.9
2022-08-28T05:43:01.706Z,11.1
2022-08-28T05:48:01.615Z,10.6
2022-08-28T05:53:01.695Z,11.0
2022-08-28T05:58:01.656Z,10.0
2022-08-28T06:03:01.626Z,9.3
2022-08-28T06:08:01.633Z,8.0
2022-08-28T06:13:03.047Z,8.1
2022-08-28T06:18:01.689Z,7.8
2022-08-28T06:23:01.638Z,7.2
2022-08-28T06:28:01.671Z,6.4
2022-08-28T06:33:01.552Z,7.1
2022-08-28T06:38:01.545Z,6.8
2022-08-28T06:43:01.474Z,7.0
2022-08-28T06:48:01.291Z,8.0
2022-08-28T06:54:01.353Z,8.4
2022-08-28T06:59:01.330Z,8.7
2022-08-28T07:04:04.867Z,8.9
2022-08-28T07:09:01.628Z,7.8
2022-08-28T07:14:01.482Z,7.6
2022-08-28T07:19:01.051Z,7.3
2022-08-28T07:24:01.689Z,7.4
2022-08-28T07:34:01.252Z,8.5
2022-08-28T07:39:01.613Z,8.1
2022-08-28T07:44:02.752Z,8.0
2022-08-28T07:49:01.644Z,7.4
2022-08-28T07:55:01.652Z,7.1
2022-08-28T08:00:02.345Z,6.8
2022-08-28T08:05:01.670Z,6.5
2022-08-28T08:10:01.678Z,6.8
2022-08-28T08:15:02.458Z,6.2
2022-08-28T08:20:01.669Z,6.7
2022-08-28T08:25:02.961Z,6.5
2022-08-28T08:30:02.326Z,7.0
2022-08-28T08:35:01.653Z,6.0
2022-08-28T08:40:01.860Z,6.9
2022-08-28T08:45:02.449Z,6.2
2022-08-28T08:50:01.742Z,6.2
2022-08-28T08:55:06.549Z,6.4
2022-08-28T09:00:05.277Z,8.0
2022-08-28T09:05:01.665Z,8.1
2022-08-28T09:10:03.180Z,9.3
2022-08-28T09:15:12.247Z,9.9
2022-08-28T09:20:03.922Z,10.5
2022-08-28T09:25:01.720Z,10.8
2022-08-28T09:30:09.406Z,11.4
2022-08-28T09:35:11.754Z,11.0
2022-08-28T09:40:01.666Z,11.3
2022-08-28T09:45:09.819Z,11.4
2022-08-28T09:50:01.476Z,10.8
2022-08-28T09:55:01.381Z,10.4
2022-08-28T10:01:01.380Z,10.3
2022-08-28T10:11:01.477Z,9.3
2022-08-28T10:16:01.765Z,9.4
2022-08-28T10:21:01.782Z,9.8
2022-08-28T10:26:05.875Z,10.2
2022-08-28T10:31:01.730Z,10.4
2022-08-28T10:36:07.536Z,10.4
2022-08-28T10:41:01.636Z,10.6
2022-08-28T10:46:03.937Z,10.3
2022-08-28T10:51:02.011Z,10.0
2022-08-28T11:01:01.841Z,10.4
2022-08-28T11:06:01.691Z,10.6
2022-08-28T11:21:01.545Z,10.8
2022-08-28T11:26:01.752Z,10.2
2022-08-28T11:31:01.711Z,9.4
2022-08-28T11:36:01.716Z,9.0
2022-08-28T11:46:01.774Z,8.8
2022-08-28T11:51:01.682Z,8.3
2022-08-28T11:56:01.551Z,8.3
2022-08-28T12:01:01.630Z,8.4
2022-08-28T12:11:02.042Z,8.1
2022-08-28T12:16:04.358Z,8.7
2022-08-28T12:21:01.621Z,8.3
2022-08-28T12:26:01.623Z,8.4
2022-08-28T12:31:01.717Z,8.2
2022-08-28T12:36:03.367Z,8.0
2022-08-28T12:41:01.628Z,8.0
2022-08-28T12:46:01.842Z,8.4
2022-08-28T12:51:05.408Z,8.2
2022-08-28T12:56:01.459Z,7.6
2022-08-28T13:01:05.367Z,7.7
2022-08-28T13:06:03.979Z,7.8
2022-08-28T13:12:01.268Z,8.2
2022-08-28T13:17:01.447Z,7.8
2022-08-28T13:22:01.623Z,8.0
2022-08-28T13:27:04.584Z,7.8
2022-08-28T13:37:01.680Z,7.6
2022-08-28T13:42:01.620Z,8.0
2022-08-28T13:47:01.383Z,7.8
2022-08-28T13:52:02.982Z,8.0
2022-08-28T13:57:02.702Z,7.2
2022-08-28T14:02:04.589Z,6.6
2022-08-28T14:07:01.627Z,5.8
2022-08-28T14:12:02.289Z,6.0
2022-08-28T14:17:01.897Z,5.4
2022-08-28T14:22:01.545Z,6.0
2022-08-28T14:27:01.592Z,6.3
2022-08-28T14:37:01.570Z,5.8
2022-08-28T14:42:01.591Z,4.9
2022-08-28T14:47:01.555Z,3.9
2022-08-28T14:52:01.820Z,3.4
2022-08-28T14:57:01.568Z,3.2
2022-08-28T15:02:01.596Z,3.0
2022-08-28T15:07:03.522Z,3.5
2022-08-28T15:12:02.290Z,3.4
2022-08-28T15:17:01.839Z,3.5
2022-08-28T15:22:02.046Z,3.4
2022-08-28T15:27:01.758Z,3.4
2022-08-28T15:32:01.969Z,3.6
2022-08-28T15:37:03.369Z,3.5
2022-08-28T15:52:04.130Z,3.1
2022-08-28T15:57:01.648Z,2.5
2022-08-28T16:02:01.783Z,2.9
2022-08-28T16:07:01.632Z,2.8
2022-08-28T16:12:01.775Z,2.7
2022-08-28T16:17:10.877Z,3.0
2022-08-28T16:22:01.620Z,3.4
2022-08-28T16:27:01.921Z,3.3
2022-08-28T16:32:01.868Z,3.6
2022-08-28T16:37:02.163Z,4.1
2022-08-28T16:42:01.655Z,3.9
2022-08-28T16:47:01.851Z,4.0
2022-08-28T16:52:01.679Z,4.0
2022-08-28T16:57:01.705Z,3.5
2022-08-28T17:02:02.805Z,3.8
2022-08-28T17:07:02.510Z,4.2
2022-08-28T17:22:01.628Z,4.5
2022-08-28T17:27:06.133Z,4.0
2022-08-28T17:32:01.667Z,4.2
2022-08-28T17:37:01.595Z,3.9
2022-08-28T17:42:01.591Z,4.0
2022-08-28T17:47:01.596Z,3.9
2022-08-28T17:52:01.600Z,4.0
2022-08-28T17:57:02.002Z,3.9
2022-08-28T18:02:01.845Z,4.2
2022-08-28T18:07:01.650Z,3.7
2022-08-28T18:12:01.594Z,3.9
2022-08-28T18:17:02.507Z,3.7
2022-08-28T18:22:01.966Z,3.7
2022-08-28T18:27:01.615Z,4.0
2022-08-28T18:32:01.479Z,5.0
2022-08-28T18:37:01.748Z,5.1
2022-08-28T18:42:01.429Z,5.6
2022-08-28T18:47:01.499Z,6.0
2022-08-28T18:52:01.406Z,5.8
2022-08-28T18:57:04.637Z,5.5
2022-08-28T19:02:02.446Z,6.0
2022-08-28T19:07:01.459Z,6.0
2022-08-28T19:12:02.524Z,5.8
2022-08-28T19:17:01.386Z,6.1
2022-08-28T19:22:01.723Z,6.5
2022-08-28T19:32:02.621Z,7.0
2022-08-28T19:37:01.781Z,7.2
2022-08-28T19:42:01.565Z,6.9
2022-08-28T19:52:01.648Z,7.3
2022-08-28T19:57:01.253Z,6.6
2022-08-28T20:07:01.571Z,7.2
2022-08-28T20:12:01.690Z,7.1
2022-08-28T20:17:01.418Z,6.6
2022-08-28T20:27:01.363Z,6.6
2022-08-28T20:32:01.388Z,6.2
2022-08-28T20:37:02.493Z,6.8
2022-08-28T20:42:01.648Z,7.2
2022-08-28T20:47:01.650Z,7.2
2022-08-28T20:52:01.632Z,7.4
2022-08-28T20:57:01.561Z,7.4
2022-08-28T21:02:01.664Z,7.0
2022-08-28T21:07:01.651Z,6.6
2022-08-28T21:12:01.744Z,6.7
2022-08-28T21:17:02.139Z,6.3
2022-08-28T21:22:01.629Z,6.4
2022-08-28T21:27:01.713Z,6.7
2022-08-28T21:32:01.651Z,7.0
2022-08-28T21:37:01.779Z,6.5
2022-08-28T21:42:01.668Z,6.9
2022-08-28T21:47:02.143Z,7.3
2022-08-28T21:52:01.659Z,7.0
2022-08-28T21:57:01.663Z,6.9
2022-08-28T22:02:01.755Z,6.7
2022-08-28T22:07:01.638Z,6.7
2022-08-28T22:12:02.582Z,5.8
2022-08-28T22:22:01.706Z,5.8
2022-08-28T22:27:02.816Z,6.1
2022-08-28T22:32:03.577Z,6.2
2022-08-28T22:37:01.625Z,6.8
2022-08-28T22:42:01.682Z,6.7
2022-08-28T22:47:01.630Z,6.3
2022-08-28T22:52:01.628Z,6.4
2022-08-28T22:57:01.655Z,6.6
2022-08-28T23:02:01.729Z,6.4
2022-08-28T23:07:01.628Z,6.9
2022-08-28T23:12:01.641Z,6.5
2022-08-28T23:17:01.769Z,6.4
2022-08-28T23:22:01.642Z,6.0
2022-08-28T23:37:01.933Z,6.6
2022-08-28T23:42:01.612Z,6.6
2022-08-28T23:47:02.720Z,6.9
2022-08-28T23:57:01.903Z,6.6
